createdAt,value
2023-03-21T00:00:43.263Z,97490.69
2023-03-21T00:03:09.953Z,97489.88
2023-03-21T00:05:49.626Z,97492.66
2023-03-21T00:08:16.303Z,97482.69
2023-03-21T00:10:43.995Z,97482.41
2023-03-21T00:13:13.214Z,97478.59
2023-03-21T00:16:03.401Z,97478.53
2023-03-21T00:18:31.715Z,97477.63
2023-03-21T00:21:29.721Z,97483.19
2023-03-21T00:23:50.410Z,97472.09
2023-03-21T00:26:17.186Z,97470.03
2023-03-21T00:28:43.871Z,97470.25
2023-03-21T00:31:10.768Z,97470.09
2023-03-21T00:33:39.105Z,97460.44
2023-03-21T00:36:07.210Z,97449.38
2023-03-21T00:38:34.490Z,97458.78
2023-03-21T00:41:10.996Z,97459.53
2023-03-21T00:43:44.063Z,97455.13
2023-03-21T00:46:10.729Z,97451.81
2023-03-21T00:48:39.044Z,97448.50
2023-03-21T00:51:15.583Z,97442.88
2023-03-21T00:53:42.776Z,97440.31
2023-03-21T00:56:09.800Z,97440.31
2023-03-21T00:58:36.472Z,97440.72
2023-03-21T01:01:04.439Z,97447.06
2023-03-21T01:03:30.944Z,97435.13
2023-03-21T01:06:07.213Z,97448.19
2023-03-21T01:08:55.503Z,97435.88
2023-03-21T01:11:27.255Z,97433.44
2023-03-21T01:14:04.085Z,97436.06
2023-03-21T01:16:31.322Z,97426.03
2023-03-21T01:18:58.221Z,97423.56
2023-03-21T01:21:25.203Z,97419.69
2023-03-21T01:23:51.827Z,97427.19
2023-03-21T01:26:18.442Z,97423.44
2023-03-21T01:28:45.661Z,97428.59
2023-03-21T01:31:15.027Z,97427.66
2023-03-21T01:33:42.652Z,97426.34
2023-03-21T01:36:17.029Z,97427.25
2023-03-21T01:38:44.556Z,97424.88
2023-03-21T01:41:47.298Z,97421.34
2023-03-21T01:44:19.928Z,97422.63
2023-03-21T01:47:09.841Z,97421.66
2023-03-21T01:49:49.896Z,97420.88
2023-03-21T01:52:39.209Z,97413.63
2023-03-21T01:55:32.174Z,97423.75
2023-03-21T01:58:07.016Z,97417.03
2023-03-21T02:00:53.920Z,97415.25
2023-03-21T02:03:38.166Z,97413.09
2023-03-21T02:06:31.692Z,97411.13
2023-03-21T02:09:10.025Z,97412.16
2023-03-21T02:11:38.592Z,97408.56
2023-03-21T02:14:07.632Z,97412.00
2023-03-21T02:17:01.896Z,97410.44
2023-03-21T02:19:32.993Z,97401.31
2023-03-21T02:22:30.809Z,97401.31
2023-03-21T02:25:26.945Z,97395.63
2023-03-21T02:28:11.132Z,97389.63
2023-03-21T02:31:05.482Z,97389.09
2023-03-21T02:33:41.940Z,97375.34
2023-03-21T02:36:14.210Z,97383.81
2023-03-21T02:39:07.965Z,97384.06
2023-03-21T02:41:58.786Z,97384.66
2023-03-21T02:44:53.917Z,97384.66
2023-03-21T02:47:30.957Z,97386.16
2023-03-21T02:50:24.763Z,97377.50
2023-03-21T02:52:53.933Z,97380.19
2023-03-21T02:55:25.746Z,97382.00
2023-03-21T02:58:04.079Z,97377.06
2023-03-21T03:00:38.678Z,97378.78
2023-03-21T03:03:10.035Z,97379.75
2023-03-21T03:05:55.822Z,97376.78
2023-03-21T03:08:47.621Z,97374.13
2023-03-21T03:11:33.213Z,97372.50
2023-03-21T03:14:21.189Z,97376.38
2023-03-21T03:17:14.351Z,97368.72
2023-03-21T03:20:20.597Z,97371.53
2023-03-21T03:22:53.352Z,97362.75
2023-03-21T03:25:41.245Z,97365.44
2023-03-21T03:28:10.713Z,97367.34
2023-03-21T03:30:44.964Z,97368.47
2023-03-21T03:33:17.886Z,97368.94
2023-03-21T03:35:55.767Z,97368.53
2023-03-21T03:38:31.025Z,97366.72
2023-03-21T03:41:19.495Z,97371.00
2023-03-21T03:43:54.869Z,97363.78
2023-03-21T03:46:47.747Z,97356.91
2023-03-21T03:49:23.028Z,97362.63
2023-03-21T03:51:59.471Z,97358.63
2023-03-21T03:54:38.327Z,97363.81
2023-03-21T03:57:06.855Z,97363.94
2023-03-21T03:59:36.252Z,97367.28
2023-03-21T04:02:20.515Z,97361.59
2023-03-21T04:04:52.760Z,97360.28
2023-03-21T04:07:21.492Z,97363.72
2023-03-21T04:09:49.738Z,97366.06
2023-03-21T04:12:19.315Z,97362.94
2023-03-21T04:15:10.832Z,97361.16
2023-03-21T04:17:40.109Z,97360.59
2023-03-21T04:20:12.338Z,97360.94
2023-03-21T04:22:43.521Z,97363.84
2023-03-21T04:25:10.413Z,97363.22
2023-03-21T04:27:37.088Z,97358.91
2023-03-21T04:30:24.748Z,97346.13
2023-03-21T04:33:03.145Z,97357.88
2023-03-21T04:35:35.865Z,97354.63
2023-03-21T04:38:04.943Z,97347.22
2023-03-21T04:40:31.773Z,97348.91
2023-03-21T04:43:01.209Z,97349.50
2023-03-21T04:45:28.261Z,97350.25
2023-03-21T04:47:55.024Z,97349.41
2023-03-21T04:50:21.617Z,97339.25
2023-03-21T04:52:48.722Z,97344.63
2023-03-21T04:55:15.964Z,97338.47
2023-03-21T04:57:42.609Z,97345.47
2023-03-21T05:00:10.445Z,97343.00
2023-03-21T05:02:38.987Z,97347.13
2023-03-21T05:05:07.015Z,97346.94
2023-03-21T05:07:33.588Z,97345.72
2023-03-21T05:10:02.328Z,97350.47
2023-03-21T05:12:30.184Z,97348.44
2023-03-21T05:14:56.817Z,97347.81
2023-03-21T05:17:24.800Z,97355.28
2023-03-21T05:19:52.854Z,97352.16
2023-03-21T05:22:19.785Z,97350.16
2023-03-21T05:24:50.283Z,97352.00
2023-03-21T05:27:37.539Z,97353.63
2023-03-21T05:30:15.748Z,97342.69
2023-03-21T05:32:42.485Z,97346.25
2023-03-21T05:35:11.786Z,97351.78
2023-03-21T05:37:38.988Z,97349.72
2023-03-21T05:40:07.599Z,97344.56
2023-03-21T05:42:35.672Z,97353.41
2023-03-21T05:45:11.200Z,97350.72
2023-03-21T05:47:40.237Z,97354.22
2023-03-21T05:50:08.063Z,97352.59
2023-03-21T05:52:35.581Z,97351.97
2023-03-21T05:55:09.696Z,97352.81
2023-03-21T05:57:39.268Z,97360.84
2023-03-21T06:00:09.339Z,97358.56
2023-03-21T06:02:59.881Z,97360.59
2023-03-21T06:05:59.398Z,97368.22
2023-03-21T06:08:33.193Z,97370.66
2023-03-21T06:11:00.433Z,97362.81
2023-03-21T06:13:27.101Z,97368.22
2023-03-21T06:15:54.027Z,97363.06
2023-03-21T06:18:24.214Z,97366.53
2023-03-21T06:20:58.880Z,97358.88
2023-03-21T06:23:25.397Z,97362.81
2023-03-21T06:25:51.903Z,97358.22
2023-03-21T06:28:18.390Z,97360.28
2023-03-21T06:30:44.831Z,97352.38
2023-03-21T06:33:18.976Z,97355.25
2023-03-21T06:35:51.945Z,97351.31
2023-03-21T06:38:19.331Z,97348.78
2023-03-21T06:40:47.501Z,97355.47
2023-03-21T06:43:14.747Z,97352.44
2023-03-21T06:45:41.365Z,97348.84
2023-03-21T06:48:10.296Z,97346.25
2023-03-21T06:50:50.263Z,97345.97
2023-03-21T06:53:18.433Z,97347.88
2023-03-21T06:56:17.604Z,97345.91
2023-03-21T06:58:45.331Z,97343.91
2023-03-21T07:01:22.183Z,97339.44
2023-03-21T07:03:59.526Z,97342.69
2023-03-21T07:06:28.431Z,97352.94
2023-03-21T07:08:55.591Z,97347.91
2023-03-21T07:11:24.476Z,97353.41
2023-03-21T07:13:51.952Z,97341.22
2023-03-21T07:16:21.455Z,97348.56
2023-03-21T07:18:48.149Z,97345.22
2023-03-21T07:21:14.681Z,97351.69
2023-03-21T07:23:41.501Z,97346.88
2023-03-21T07:26:08.107Z,97347.50
2023-03-21T07:28:34.909Z,97349.97
2023-03-21T07:31:04.319Z,97350.47
2023-03-21T07:33:32.052Z,97351.50
2023-03-21T07:36:01.848Z,97345.75
2023-03-21T07:38:30.841Z,97349.03
2023-03-21T07:40:59.597Z,97342.22
2023-03-21T07:43:28.981Z,97353.56
2023-03-21T07:45:58.719Z,97341.47
2023-03-21T07:48:26.849Z,97344.47
2023-03-21T07:50:53.653Z,97339.66
2023-03-21T07:53:20.966Z,97349.09
2023-03-21T07:55:52.556Z,97348.47
2023-03-21T07:58:19.330Z,97345.72
2023-03-21T08:00:45.886Z,97345.53
2023-03-21T08:03:13.184Z,97341.66
2023-03-21T08:05:41.367Z,97349.72
2023-03-21T08:08:08.096Z,97351.50
2023-03-21T08:10:35.081Z,97345.13
2023-03-21T08:13:01.781Z,97343.72
2023-03-21T08:15:28.623Z,97338.72
2023-03-21T08:17:55.357Z,97346.25
2023-03-21T08:20:23.350Z,97338.69
2023-03-21T08:22:50.785Z,97340.47
2023-03-21T08:25:19.772Z,97333.84
2023-03-21T08:27:46.924Z,97336.75
2023-03-21T08:30:16.548Z,97335.72
2023-03-21T08:32:43.773Z,97333.75
2023-03-21T08:35:12.963Z,97324.03
2023-03-21T08:37:40.887Z,97319.22
2023-03-21T08:40:13.192Z,97325.19
2023-03-21T08:42:40.697Z,97324.31
2023-03-21T08:45:08.387Z,97319.50
2023-03-21T08:47:35.013Z,97318.31
2023-03-21T08:50:01.576Z,97313.50
2023-03-21T08:52:28.311Z,97315.22
2023-03-21T08:54:55.225Z,97313.59
2023-03-21T08:57:21.779Z,97314.09
2023-03-21T08:59:48.305Z,97312.03
2023-03-21T09:02:17.824Z,97307.78
2023-03-21T09:04:44.907Z,97308.97
2023-03-21T09:07:14.305Z,97316.16
2023-03-21T09:09:41.672Z,97306.56
2023-03-21T09:12:08.547Z,97305.78
2023-03-21T09:14:35.385Z,97304.53
2023-03-21T09:17:02.205Z,97302.25
2023-03-21T09:19:30.048Z,97304.38
2023-03-21T09:21:57.619Z,97305.78
2023-03-21T09:24:24.221Z,97307.47
2023-03-21T09:26:51.615Z,97306.22
2023-03-21T09:29:20.805Z,97313.06
2023-03-21T09:31:47.483Z,97304.00
2023-03-21T09:34:16.700Z,97309.16
2023-03-21T09:36:48.802Z,97301.16
2023-03-21T09:39:17.284Z,97306.69
2023-03-21T09:42:13.176Z,97298.75
2023-03-21T09:45:07.614Z,97301.25
2023-03-21T09:47:45.440Z,97299.66
2023-03-21T09:50:22.078Z,97300.00
2023-03-21T09:53:07.077Z,97304.13
2023-03-21T09:55:36.120Z,97304.94
2023-03-21T09:58:12.166Z,97292.72
2023-03-21T10:00:40.542Z,97297.03
2023-03-21T10:03:20.012Z,97290.53
2023-03-21T10:05:48.447Z,97289.94
2023-03-21T10:08:36.393Z,97285.66
2023-03-21T10:11:28.495Z,97282.69
2023-03-21T10:13:59.478Z,97283.75
2023-03-21T10:16:30.978Z,97281.00
2023-03-21T10:19:18.734Z,97285.69
2023-03-21T10:22:01.218Z,97283.50
2023-03-21T10:24:31.904Z,97269.34
2023-03-21T10:26:59.216Z,97273.44
2023-03-21T10:29:36.898Z,97282.41
2023-03-21T10:32:03.658Z,97273.69
2023-03-21T10:34:38.465Z,97269.09
2023-03-21T10:37:05.702Z,97271.50
2023-03-21T10:39:41.217Z,97274.75
2023-03-21T10:42:19.611Z,97271.75
2023-03-21T10:44:49.224Z,97272.06
2023-03-21T10:47:40.556Z,97263.78
2023-03-21T10:50:13.024Z,97270.09
2023-03-21T10:53:00.528Z,97268.81
2023-03-21T10:55:31.167Z,97272.31
2023-03-21T10:58:10.838Z,97268.19
2023-03-21T11:00:41.540Z,97264.31
2023-03-21T11:03:21.254Z,97264.00
2023-03-21T11:05:49.001Z,97263.63
2023-03-21T11:08:18.635Z,97255.69
2023-03-21T11:10:59.808Z,97261.63
2023-03-21T11:13:47.662Z,97252.69
2023-03-21T11:16:50.717Z,97251.56
2023-03-21T11:19:26.644Z,97255.63
2023-03-21T11:21:53.517Z,97255.47
2023-03-21T11:24:20.423Z,97256.03
2023-03-21T11:26:49.753Z,97254.69
2023-03-21T11:29:27.585Z,97246.22
2023-03-21T11:31:59.223Z,97244.75
2023-03-21T11:34:33.098Z,97240.81
2023-03-21T11:37:02.773Z,97237.47
2023-03-21T11:39:32.221Z,97238.31
2023-03-21T11:41:58.710Z,97239.41
2023-03-21T11:44:34.318Z,97233.97
2023-03-21T11:47:01.969Z,97225.50
2023-03-21T11:49:28.820Z,97219.53
2023-03-21T11:52:11.215Z,97223.44
2023-03-21T11:55:14.513Z,97223.81
2023-03-21T11:58:05.305Z,97215.81
2023-03-21T12:00:54.823Z,97207.75
2023-03-21T12:03:47.741Z,97210.53
2023-03-21T12:06:21.826Z,97205.53
2023-03-21T12:09:00.248Z,97205.34
2023-03-21T12:11:41.680Z,97198.13
2023-03-21T12:14:19.371Z,97197.13
2023-03-21T12:17:10.455Z,97191.50
2023-03-21T12:20:08.116Z,97187.63
2023-03-21T12:22:40.615Z,97180.13
2023-03-21T12:25:16.469Z,97177.34
2023-03-21T12:27:57.915Z,97176.56
2023-03-21T12:30:33.532Z,97168.19
2023-03-21T12:33:44.630Z,97171.31
2023-03-21T12:36:41.967Z,97169.75
2023-03-21T12:39:14.524Z,97171.09
2023-03-21T12:41:53.866Z,97162.38
2023-03-21T12:44:23.514Z,97165.19
2023-03-21T12:47:06.811Z,97163.22
2023-03-21T12:49:43.329Z,97158.56
2023-03-21T12:52:21.900Z,97157.97
2023-03-21T12:55:06.415Z,97161.03
2023-03-21T12:57:44.613Z,97155.91
2023-03-21T13:00:22.935Z,97152.13
2023-03-21T13:03:01.255Z,97151.88
2023-03-21T13:05:33.500Z,97152.69
2023-03-21T13:08:03.012Z,97148.84
2023-03-21T13:10:30.370Z,97158.16
2023-03-21T13:13:24.096Z,97154.56
2023-03-21T13:16:08.077Z,97145.25
2023-03-21T13:18:47.277Z,97140.97
2023-03-21T13:21:19.039Z,97142.84
2023-03-21T13:24:17.380Z,97144.94
2023-03-21T13:26:51.237Z,97132.63
2023-03-21T13:29:27.083Z,97136.47
2023-03-21T13:31:57.496Z,97142.53
2023-03-21T13:34:25.605Z,97144.56
2023-03-21T13:36:52.796Z,97141.53
2023-03-21T13:39:25.132Z,97140.53
2023-03-21T13:41:52.073Z,97131.09
2023-03-21T13:44:22.133Z,97125.34
2023-03-21T13:47:22.406Z,97113.66
2023-03-21T13:50:22.081Z,97108.63
2023-03-21T13:53:03.580Z,97105.00
2023-03-21T13:56:32.113Z,97096.81
2023-03-21T13:59:02.013Z,97105.63
2023-03-21T14:01:38.427Z,97101.44
2023-03-21T14:04:31.963Z,97098.91
2023-03-21T14:07:23.156Z,97098.31
2023-03-21T14:09:52.899Z,97096.50
2023-03-21T14:12:29.008Z,97088.81
2023-03-21T14:15:27.589Z,97095.81
2023-03-21T14:18:16.010Z,97091.34
2023-03-21T14:20:56.355Z,97088.34
2023-03-21T14:23:23.343Z,97097.16
2023-03-21T14:25:50.488Z,97104.03
2023-03-21T14:28:29.509Z,97098.00
2023-03-21T14:30:59.986Z,97093.41
2023-03-21T14:33:39.466Z,97091.31
2023-03-21T14:36:11.669Z,97096.63
2023-03-21T14:38:40.080Z,97087.44
2023-03-21T14:41:21.934Z,97089.13
2023-03-21T14:44:14.182Z,97088.09
2023-03-21T14:46:41.773Z,97089.88
2023-03-21T14:49:13.653Z,97092.09
2023-03-21T14:51:41.895Z,97083.66
2023-03-21T14:54:13.654Z,97080.81
2023-03-21T14:56:40.753Z,97084.69
2023-03-21T14:59:16.513Z,97080.25
2023-03-21T15:01:46.056Z,97083.09
2023-03-21T15:04:15.423Z,97081.84
2023-03-21T15:06:59.271Z,97078.69
2023-03-21T15:09:28.450Z,97087.78
2023-03-21T15:11:57.016Z,97072.75
2023-03-21T15:14:27.880Z,97070.06
2023-03-21T15:16:55.495Z,97075.75
2023-03-21T15:19:28.640Z,97069.34
2023-03-21T15:22:00.744Z,97068.59
2023-03-21T15:24:31.753Z,97077.31
2023-03-21T15:27:04.890Z,97076.25
2023-03-21T15:29:33.925Z,97068.56
2023-03-21T15:32:04.816Z,97064.16
2023-03-21T15:34:31.635Z,97074.59
2023-03-21T15:37:05.532Z,97071.66
2023-03-21T15:39:35.236Z,97065.44
2023-03-21T15:42:28.972Z,97074.22
2023-03-21T15:44:58.223Z,97073.97
2023-03-21T15:47:51.945Z,97073.53
2023-03-21T15:50:27.690Z,97066.38
2023-03-21T15:52:55.549Z,97061.81
2023-03-21T15:55:28.457Z,97069.44
2023-03-21T15:58:01.031Z,97065.00
2023-03-21T16:00:38.596Z,97071.06
2023-03-21T16:03:25.073Z,97065.84
2023-03-21T16:06:14.379Z,97068.81
2023-03-21T16:09:07.056Z,97069.34
2023-03-21T16:12:12.843Z,97060.16
2023-03-21T16:14:40.379Z,97049.63
2023-03-21T16:17:33.614Z,97062.38
2023-03-21T16:20:00.806Z,97059.06
2023-03-21T16:22:28.792Z,97057.84
2023-03-21T16:24:55.551Z,97058.16
2023-03-21T16:27:22.108Z,97055.41
2023-03-21T16:29:48.624Z,97055.13
2023-03-21T16:32:17.161Z,97061.69
2023-03-21T16:34:45.231Z,97063.34
2023-03-21T16:37:15.713Z,97063.97
2023-03-21T16:39:42.959Z,97061.59
2023-03-21T16:42:12.169Z,97061.03
2023-03-21T16:44:39.709Z,97061.31
2023-03-21T16:47:20.697Z,97060.88
2023-03-21T16:49:47.587Z,97063.88
2023-03-21T16:52:15.212Z,97064.38
2023-03-21T16:54:42.440Z,97061.97
2023-03-21T16:57:28.888Z,97059.78
2023-03-21T16:59:56.009Z,97063.88
2023-03-21T17:02:25.533Z,97059.50
2023-03-21T17:04:52.039Z,97060.88
2023-03-21T17:07:19.057Z,97068.75
2023-03-21T17:09:45.601Z,97062.22
2023-03-21T17:12:15.100Z,97069.56
2023-03-21T17:14:43.172Z,97072.00
2023-03-21T17:17:14.443Z,97073.16
2023-03-21T17:19:41.534Z,97072.91
2023-03-21T17:22:08.788Z,97071.84
2023-03-21T17:24:36.301Z,97072.63
2023-03-21T17:27:04.478Z,97068.28
2023-03-21T17:29:31.149Z,97073.38
2023-03-21T17:31:57.724Z,97072.53
2023-03-21T17:34:24.510Z,97078.47
2023-03-21T17:36:51.620Z,97069.97
2023-03-21T17:39:24.890Z,97070.16
2023-03-21T17:41:52.156Z,97076.44
2023-03-21T17:44:19.983Z,97077.25
2023-03-21T17:46:47.748Z,97075.69
2023-03-21T17:49:16.331Z,97084.66
2023-03-21T17:51:43.356Z,97079.63
2023-03-21T17:54:10.197Z,97080.88
2023-03-21T17:56:40.871Z,97073.75
2023-03-21T17:59:11.283Z,97080.81
2023-03-21T18:01:37.864Z,97078.88
2023-03-21T18:04:05.215Z,97088.81
2023-03-21T18:06:34.082Z,97090.41
2023-03-21T18:09:04.238Z,97089.03
2023-03-21T18:11:30.846Z,97089.41
2023-03-21T18:14:13.795Z,97079.25
2023-03-21T18:16:42.796Z,97075.16
2023-03-21T18:19:12.525Z,97079.22
2023-03-21T18:21:40.682Z,97083.47
2023-03-21T18:24:07.646Z,97087.88
2023-03-21T18:26:34.280Z,97081.81
2023-03-21T18:30:03.808Z,97084.34
2023-03-21T18:32:04.378Z,97085.84
2023-03-21T18:34:31.351Z,97084.56
2023-03-21T18:36:58.019Z,97085.69
2023-03-21T18:39:24.657Z,97096.84
2023-03-21T18:41:51.144Z,97102.94
2023-03-21T18:44:19.791Z,97100.38
2023-03-21T18:46:50.658Z,97092.97
2023-03-21T18:52:04.909Z,97097.47
2023-03-21T18:54:31.591Z,97100.00
2023-03-21T18:57:33.795Z,97086.41
2023-03-21T18:59:45.266Z,97087.97
2023-03-21T19:02:13.865Z,97080.44
2023-03-21T19:04:40.776Z,97088.50
2023-03-21T19:07:08.577Z,97083.81
2023-03-21T19:09:58.253Z,97099.72
2023-03-21T19:12:23.628Z,97100.34
2023-03-21T19:14:50.391Z,97104.78
2023-03-21T19:18:07.823Z,97104.72
2023-03-21T19:20:05.605Z,97092.47
2023-03-21T19:22:32.110Z,97090.81
2023-03-21T19:24:58.739Z,97096.00
2023-03-21T19:27:25.263Z,97097.63
2023-03-21T19:30:08.363Z,97102.63
2023-03-21T19:32:38.487Z,97087.88
2023-03-21T19:35:05.879Z,97090.00
2023-03-21T19:37:35.189Z,97079.56
2023-03-21T19:40:03.074Z,97082.72
2023-03-21T19:42:30.891Z,97081.84
2023-03-21T19:44:57.789Z,97082.31
2023-03-21T19:47:24.321Z,97080.16
2023-03-21T19:52:40.715Z,97075.72
2023-03-21T19:55:08.082Z,97075.41
2023-03-21T19:57:34.981Z,97074.63
2023-03-21T20:00:01.921Z,97084.44
2023-03-21T20:02:37.677Z,97080.34
2023-03-21T20:05:07.939Z,97077.69
2023-03-21T20:07:34.696Z,97082.59
2023-03-21T20:10:01.370Z,97076.00
2023-03-21T20:12:28.665Z,97084.97
2023-03-21T20:15:07.208Z,97082.16
2023-03-21T20:17:42.332Z,97085.75
2023-03-21T20:20:10.109Z,97085.72
2023-03-21T20:23:05.303Z,97098.50
2023-03-21T20:25:23.270Z,97086.50
2023-03-21T20:28:09.389Z,97092.00
2023-03-21T20:30:36.568Z,97088.88
2023-03-21T20:33:04.215Z,97094.34
2023-03-21T20:36:16.478Z,97086.97
2023-03-21T20:38:20.472Z,97087.22
2023-03-21T20:40:47.908Z,97089.38
2023-03-21T20:43:54.367Z,97095.59
2023-03-21T20:46:06.804Z,97111.38
2023-03-21T20:48:34.465Z,97111.69
2023-03-21T20:52:00.222Z,97110.38
2023-03-21T20:53:55.767Z,97110.13
2023-03-21T20:56:22.746Z,97105.22
2023-03-21T20:59:07.978Z,97106.72
2023-03-21T21:01:35.706Z,97104.13
2023-03-21T21:04:02.555Z,97108.03
2023-03-21T21:06:29.086Z,97103.09
2023-03-21T21:08:55.807Z,97101.78
2023-03-21T21:14:09.517Z,97098.88
2023-03-21T21:16:37.093Z,97094.69
2023-03-21T21:19:03.642Z,97101.06
2023-03-21T21:21:31.605Z,97088.72
2023-03-21T21:23:58.376Z,97088.72
2023-03-21T21:26:25.139Z,97089.94
2023-03-21T21:28:53.131Z,97098.53
2023-03-21T21:31:20.378Z,97102.28
2023-03-21T21:33:49.983Z,97096.88
2023-03-21T21:36:16.854Z,97100.72
2023-03-21T21:38:43.367Z,97105.09
2023-03-21T21:41:17.550Z,97105.41
2023-03-21T21:43:44.121Z,97107.94
2023-03-21T21:46:10.765Z,97103.28
2023-03-21T21:48:38.893Z,97104.75
2023-03-21T21:51:05.633Z,97092.97
2023-03-21T21:53:33.716Z,97093.75
2023-03-21T21:56:03.373Z,97089.75
2023-03-21T21:58:33.518Z,97086.34
2023-03-21T22:01:01.846Z,97095.28
2023-03-21T22:03:36.334Z,97094.34
2023-03-21T22:06:03.566Z,97092.06
2023-03-21T22:08:30.134Z,97088.84
2023-03-21T22:10:57.706Z,97086.16
2023-03-21T22:13:24.228Z,97085.75
2023-03-21T22:15:50.719Z,97088.03
2023-03-21T22:18:17.392Z,97093.38
2023-03-21T22:20:44.651Z,97092.19
2023-03-21T22:23:11.650Z,97097.56
2023-03-21T22:25:38.392Z,97098.56
2023-03-21T22:28:05.446Z,97107.50
2023-03-21T22:30:32.205Z,97105.81
2023-03-21T22:33:08.813Z,97099.53
2023-03-21T22:35:36.668Z,97106.97
2023-03-21T22:38:03.191Z,97100.72
2023-03-21T22:40:29.724Z,97108.59
2023-03-21T22:42:56.300Z,97104.63
2023-03-21T22:45:22.840Z,97109.94
2023-03-21T22:47:49.333Z,97110.53
2023-03-21T22:50:16.140Z,97109.84
2023-03-21T22:52:42.651Z,97104.53
2023-03-21T22:55:12.538Z,97103.28
2023-03-21T22:57:39.024Z,97102.63
2023-03-21T23:00:13.191Z,97106.50
2023-03-21T23:02:41.315Z,97106.16
2023-03-21T23:05:09.675Z,97101.13
2023-03-21T23:07:36.326Z,97109.91
2023-03-21T23:10:05.040Z,97104.66
2023-03-21T23:12:31.842Z,97104.88
2023-03-21T23:14:58.335Z,97102.53
2023-03-21T23:17:25.033Z,97104.06
2023-03-21T23:19:51.496Z,97107.09
2023-03-21T23:22:18.205Z,97102.94
2023-03-21T23:24:45.193Z,97111.59
2023-03-21T23:27:14.181Z,97103.63
2023-03-21T23:29:40.666Z,97109.59
2023-03-21T23:32:07.124Z,97099.81
2023-03-21T23:34:33.663Z,97093.59
2023-03-21T23:37:00.230Z,97101.41
2023-03-21T23:39:28.224Z,97101.41
2023-03-21T23:41:55.048Z,97102.78
2023-03-21T23:44:21.540Z,97100.09
2023-03-21T23:46:48.065Z,97097.13
2023-03-21T23:49:15.386Z,97095.31
2023-03-21T23:51:42.090Z,97099.84
2023-03-21T23:54:09.631Z,97087.88
2023-03-21T23:56:36.421Z,97093.03
2023-03-21T23:59:03.423Z,97089.16
